首页
METAR-TAF:

METAR-TAF

机场 :

圣克拉拉, 古巴

纬度: 22-29-32N, 经度: 079-56-37W, 海拔: 103米

当前天气观测

该预报发布于15分钟前的00:50 UTC
风速4节,风向,在东北之间变化
温度 28°C
湿度 84%
气压 1017 hPa
能見度: 9000
多云层高于6000英尺

METAR: MUSC 160050Z 08004KT 040V100 9000 BKN060 28/25 Q1017

时间: 21:05 (01:05 UTC)

预报

该预报发布于2小时和5分钟前的23:00 UTC
预报有效从16日的 00点(UTC)到 16日的 24点(UTC)
风速10节,风向东转东北
能見度: 9000
散云层高于2000英尺
短暂存在
从 16日的 00点(UTC)到 16日的 01点(UTC)
能見度: 6000
少量云层高于2000英尺, 积雨云.
多云层高于2000英尺
成为
从 16日的 02点(UTC)到 16日的 03点(UTC)
风速3节,风向多变
成为
从 16日的 13点(UTC)到 16日的 15点(UTC)
风速11节,风向东转东北
短暂存在
从 16日的 21点(UTC)到 16日的 24点(UTC)
能見度: 5000
少量云层高于2000英尺, 积雨云.
多云层高于2000英尺
阵雨, 雨,

TAF: MUSC 152300Z 1600/1624 07010KT 9000 SCT020 TEMPO 1600/1601 6000 RA FEW020CB BKN020 BECMG 1602/1603 VRB03KT BECMG 1613/1615 06011KT TEMPO 1621/1624 5000 SHRA RA FEW020CB BKN020

超过4000个机场的气象观测和天气预报(METAR&TAF报告)。

可查询的气象台以黄色和红色小点在地图上表示。

将鼠标移到小点上方,可查看气象台名称。

然后点击查看天气观测和预报。

如需切换地图:点击带黑十字的绿色按钮放大地图;点击带横线的绿色按钮缩小地图;或者点击绿色箭头查看邻近地区的地图。


METAR-TAF: